Basin, Montana
Current Conditions -  °F | °C
As of 5:03 PM on Sunday 21 Dec 2014 (Local Time) from KBTM Reporting Station
Light Snow Light Snow  
Wind Chill: 22°   Ceiling: 1800
Heat Index: 31°   Visibility: 2mi
Dew Point: 29°   Wind: 12mph
Humidity: 92%   Direction: 290°WNW
Pressure: 29.76"   Gusts: NA
Location:  46.27°N, 112.26°W
Report Text: KBTM 220003Z AUTO 29010KT 2SM -SN BR BKN018 BKN034 OVC070 M01/M02 A2976 RMK AO2 P0000 T10061017
Loading
Personal Weather Stations






























Interactive Weather Map New forecast layout! Learn more

10-Day Weather Forecast

Advertisements
Track Severe Weather on mobile